Nasosnyy, Azerbaijan
Current Conditions -  °F | °C
As of 4:00 AM on Sunday 21 Dec 2014 (Local Time) from UBBB Reporting Station
Overcast Overcast  
Wind Chill: 42°   Ceiling: 1600
Heat Index: 46°   Visibility: 6mi
Dew Point: 41°   Wind: 9mph
Humidity: 81%   Direction: 200°SSW
Pressure: 30.09"   Gusts: NA
Location:  40.62°N, 49.55°E
Report Text: UBBB 202300Z 20008KT 9999 OVC016 08/05 Q1019 88CLRD70NOSIG
Loading
Personal Weather Stations






























Interactive Weather Map New forecast layout! Learn more

10-Day Weather Forecast

Advertisements
Track Severe Weather on mobile